Time;durP1;ratioP1;P1;durP2;ratioP2;P2;SDS_P1;SDS_P2;PMS_P1;PMS_P2;Temp;Humidity;BMP_temperature;BMP_pressure;BME280_temperature;BME280_humidity;BME280_pressure;Samples;Min_cycle;Max_cycle;Signal;HPM_P1;HPM_P2
2022/08/01 00:02:01;;;;;;;4.65;3.63;;;;;;;22.76;49.75;98909.38;5088509;28;20056;-68
2022/08/01 00:04:28;;;;;;;4.35;3.40;;;;;;;22.76;49.90;98904.81;5088291;28;20060;-67
2022/08/01 00:06:55;;;;;;;4.55;3.70;;;;;;;22.78;50.04;98907.34;5088338;28;20057;-67
2022/08/01 00:09:23;;;;;;;4.47;4.07;;;;;;;22.71;50.41;98904.47;5088246;28;20056;-68
2022/08/01 00:11:50;;;;;;;4.00;3.45;;;;;;;22.76;50.18;98912.06;5088279;28;20118;-67
2022/08/01 00:14:18;;;;;;;6.10;3.70;;;;;;;22.71;50.13;98907.19;5088356;28;20060;-67
2022/08/01 00:16:46;;;;;;;4.95;4.10;;;;;;;22.23;50.08;98816.28;5088535;28;20082;-67
2022/08/01 00:19:13;;;;;;;4.50;3.95;;;;;;;22.69;50.33;98907.34;5088103;28;20106;-67
2022/08/01 00:21:40;;;;;;;8.05;3.95;;;;;;;22.70;50.14;98908.19;5088039;28;20079;-68
2022/08/01 00:24:07;;;;;;;4.40;3.53;;;;;;;21.91;50.72;98796.41;5088005;28;20059;-67
2022/08/01 00:26:35;;;;;;;4.53;3.30;;;;;;;22.63;50.51;98901.81;5087591;28;20324;-67
2022/08/01 00:29:02;;;;;;;4.47;3.25;;;;;;;22.62;50.53;98906.38;5087632;28;20056;-67
2022/08/01 00:31:31;;;;;;;4.13;3.72;;;;;;;22.47;50.76;98886.44;5087171;28;20120;-68
2022/08/01 00:33:58;;;;;;;7.72;4.70;;;;;;;22.29;50.61;98861.47;5087619;28;20060;-68
2022/08/01 00:36:25;;;;;;;5.13;3.90;;;;;;;22.52;50.80;98904.84;5087959;28;20056;-68
2022/08/01 00:38:52;;;;;;;5.90;4.05;;;;;;;22.00;50.91;98832.31;5087755;28;20052;-68
2022/08/01 00:41:20;;;;;;;4.10;3.47;;;;;;;22.49;50.71;98895.22;5087743;28;20052;-68
2022/08/01 00:43:47;;;;;;;5.78;4.38;;;;;;;22.48;51.13;98898.09;5070168;28;20057;-68
2022/08/01 00:46:14;;;;;;;4.50;4.10;;;;;;;22.47;51.15;98905.34;5070155;28;20052;-67
2022/08/01 00:48:43;;;;;;;4.25;3.53;;;;;;;22.03;51.11;98831.97;5087588;28;20373;-68
2022/08/01 00:51:11;;;;;;;5.25;3.38;;;;;;;22.46;50.97;98895.56;5087296;28;20255;-67
2022/08/01 00:53:40;;;;;;;4.63;3.72;;;;;;;22.16;51.62;98853.91;5087342;28;20057;-68
2022/08/01 00:56:09;;;;;;;3.70;3.10;;;;;;;22.37;51.40;98894.69;5087057;28;20098;-68
2022/08/01 00:58:37;;;;;;;4.35;3.70;;;;;;;22.25;51.65;98874.47;5087345;28;20110;-68
2022/08/01 01:01:04;;;;;;;4.15;3.75;;;;;;;22.37;51.56;98896.56;5087478;28;20056;-68
2022/08/01 01:03:32;;;;;;;6.78;3.85;;;;;;;22.33;51.75;98901.44;5087260;28;20123;-68
2022/08/01 01:06:13;;;;;;;4.68;3.72;;;;;;;22.29;52.22;98886.59;5086830;28;20056;-68
2022/08/01 01:08:47;;;;;;;8.25;7.45;;;;;;;22.36;52.17;98906.50;5087247;28;20064;-67
2022/08/01 01:11:22;;;;;;;10.43;9.00;;;;;;;22.35;51.92;98898.56;5087131;28;20102;-68
2022/08/01 01:13:54;;;;;;;12.02;10.52;;;;;;;22.24;51.94;98883.56;5087080;28;20316;-68
2022/08/01 01:16:23;;;;;;;9.90;7.80;;;;;;;21.95;51.79;98848.19;5087081;28;20114;-68
2022/08/01 01:18:54;;;;;;;8.55;7.53;;;;;;;22.23;51.91;98886.44;5086905;28;20102;-68
2022/08/01 01:21:41;;;;;;;6.20;5.40;;;;;;;22.33;52.60;98906.00;5087171;28;20044;-68
2022/08/01 01:24:22;;;;;;;6.03;5.13;;;;;;;22.32;52.35;98898.91;5086833;28;20114;-67
2022/08/01 01:26:56;;;;;;;5.57;4.50;;;;;;;22.34;52.02;98902.28;5086757;28;20057;-68
2022/08/01 01:29:28;;;;;;;5.35;4.43;;;;;;;22.33;52.26;98901.44;5069233;28;20270;-68
2022/08/01 01:31:58;;;;;;;5.40;4.38;;;;;;;22.31;52.13;98902.63;5086887;28;20113;-68
2022/08/01 01:34:29;;;;;;;3.83;2.95;;;;;;;22.34;52.25;98899.59;5069738;28;20048;-68
2022/08/01 01:37:00;;;;;;;4.03;3.53;;;;;;;22.32;52.08;98890.81;5086674;28;20255;-67
2022/08/01 01:39:30;;;;;;;4.00;3.47;;;;;;;22.31;51.96;98889.97;5086483;28;20308;-68
2022/08/01 01:41:59;;;;;;;5.07;4.38;;;;;;;22.29;52.08;98891.16;5086308;28;20121;-67
2022/08/01 01:44:28;;;;;;;5.53;5.00;;;;;;;22.32;52.14;98891.66;5086447;28;20048;-68
2022/08/01 01:46:57;;;;;;;8.65;6.43;;;;;;;22.13;51.92;98867.72;5086486;28;20316;-68
2022/08/01 01:49:27;;;;;;;8.15;7.30;;;;;;;22.15;52.20;98871.09;5085879;28;20057;-68
2022/08/01 01:51:58;;;;;;;8.15;7.18;;;;;;;22.30;52.24;98892.84;5086360;28;20044;-68
2022/08/01 01:54:29;;;;;;;8.15;6.90;;;;;;;22.23;52.50;98887.28;5086121;28;20056;-68
2022/08/01 01:56:59;;;;;;;12.60;6.60;;;;;;;22.18;52.61;98862.66;5085996;28;20056;-68
2022/08/01 01:59:31;;;;;;;6.80;5.90;;;;;;;22.31;52.50;98879.19;5086340;28;20044;-68
2022/08/01 02:02:03;;;;;;;7.07;5.25;;;;;;;22.32;52.28;98878.16;5086182;28;20279;-67
2022/08/01 02:04:32;;;;;;;8.70;5.20;;;;;;;22.33;52.08;98882.56;5085843;28;20056;-67
2022/08/01 02:07:00;;;;;;;6.15;4.63;;;;;;;22.33;51.96;98884.41;5086576;28;20375;-68
2022/08/01 02:09:29;;;;;;;6.82;5.22;;;;;;;22.34;51.80;98884.25;5085851;28;20316;-67
2022/08/01 02:11:58;;;;;;;5.40;4.85;;;;;;;22.33;52.26;98890.66;5085614;28;20057;-67
2022/08/01 02:14:27;;;;;;;5.00;4.32;;;;;;;22.10;51.89;98860.81;5086137;28;20053;-67
2022/08/01 02:16:58;;;;;;;5.57;4.30;;;;;;;22.15;52.46;98868.41;5068346;28;20056;-68
2022/08/01 02:19:26;;;;;;;4.97;3.50;;;;;;;22.25;52.55;98879.88;5085751;28;20258;-67
2022/08/01 02:21:58;;;;;;;6.53;3.78;;;;;;;22.25;52.66;98876.31;5085897;28;20254;-68
2022/08/01 02:24:36;;;;;;;4.50;4.10;;;;;;;21.61;52.52;98776.34;5085826;28;20239;-67
2022/08/01 02:27:08;;;;;;;4.15;3.35;;;;;;;22.21;52.90;98883.06;5085285;28;20110;-68
2022/08/01 02:29:42;;;;;;;5.65;3.28;;;;;;;22.21;52.58;98874.97;5085707;28;20064;-68
2022/08/01 02:32:12;;;;;;;4.53;3.57;;;;;;;22.24;52.45;98871.94;5085768;28;20045;-67
2022/08/01 02:34:41;;;;;;;4.45;3.60;;;;;;;22.27;52.42;98868.91;5085272;28;20117;-67
2022/08/01 02:37:11;;;;;;;5.18;3.40;;;;;;;22.29;52.41;98864.16;5085089;28;20098;-67
2022/08/01 02:39:40;;;;;;;3.50;3.00;;;;;;;21.97;51.99;98828.09;5085238;28;20056;-67
2022/08/01 02:42:09;;;;;;;4.72;3.28;;;;;;;22.31;51.58;98865.69;5085359;28;20052;-68
2022/08/01 02:44:42;;;;;;;3.50;3.05;;;;;;;22.30;51.61;98860.47;5084950;28;20114;-68
2022/08/01 02:47:11;;;;;;;3.63;3.05;;;;;;;22.30;51.45;98869.41;5085296;28;20343;-67
2022/08/01 02:49:43;;;;;;;4.97;3.63;;;;;;;22.17;51.62;98852.88;5085111;28;20316;-68
2022/08/01 02:52:15;;;;;;;6.68;4.35;;;;;;;22.29;51.85;98875.81;5085014;28;20057;-68
2022/08/01 02:54:45;;;;;;;6.57;4.88;;;;;;;22.29;51.52;98861.47;5085453;28;20296;-68
2022/08/01 02:57:15;;;;;;;5.85;4.63;;;;;;;22.06;51.41;98842.44;5085293;28;20083;-67
2022/08/01 02:59:43;;;;;;;6.30;5.70;;;;;;;22.29;51.49;98865.00;5085233;28;20048;-67
2022/08/01 03:02:14;;;;;;;5.45;4.95;;;;;;;22.30;51.54;98866.69;5084787;28;20118;-67
2022/08/01 03:04:43;;;;;;;6.97;5.53;;;;;;;22.31;51.80;98870.25;5085166;28;20052;-68
2022/08/01 03:07:13;;;;;;;5.32;4.82;;;;;;;22.20;52.28;98870.59;5067629;28;20106;-68
2022/08/01 03:09:46;;;;;;;5.72;4.75;;;;;;;22.23;52.21;98870.25;5085374;28;20204;-67
2022/08/01 03:12:16;;;;;;;10.00;6.35;;;;;;;22.24;52.09;98870.06;5084955;28;20064;-68
2022/08/01 03:14:47;;;;;;;6.32;5.00;;;;;;;22.27;52.23;98868.91;5084571;28;20064;-68
2022/08/01 03:17:17;;;;;;;5.03;3.97;;;;;;;22.14;52.32;98845.13;5084948;28;20075;-68
2022/08/01 03:19:46;;;;;;;7.10;4.88;;;;;;;22.28;52.23;98870.59;5084716;28;20114;-68
2022/08/01 03:22:16;;;;;;;4.70;3.72;;;;;;;22.13;52.21;98837.19;5084528;28;20056;-68
2022/08/01 03:24:48;;;;;;;4.05;3.50;;;;;;;22.24;52.11;98866.53;5084944;28;20060;-68
2022/08/01 03:27:16;;;;;;;4.63;3.20;;;;;;;22.23;52.13;98854.06;5084903;28;20177;-67
2022/08/01 03:29:45;;;;;;;6.13;4.68;;;;;;;22.24;52.17;98853.03;5084850;28;20304;-68
2022/08/01 03:32:16;;;;;;;11.60;8.98;;;;;;;22.24;52.10;98858.44;5084806;28;20102;-68
2022/08/01 03:34:43;;;;;;;11.63;7.88;;;;;;;22.25;52.41;98849.31;5084627;28;20086;-67
2022/08/01 03:37:15;;;;;;;14.10;11.48;;;;;;;22.26;52.46;98849.16;5084764;28;20236;-68
2022/08/01 03:39:48;;;;;;;9.70;7.85;;;;;;;22.29;52.13;98846.13;5084556;28;20109;-68
2022/08/01 03:42:19;;;;;;;5.65;5.05;;;;;;;22.26;52.25;98853.72;5084673;28;20113;-68
2022/08/01 03:44:52;;;;;;;6.70;5.32;;;;;;;22.28;52.13;98841.72;5084388;28;20082;-68
2022/08/01 03:47:26;;;;;;;6.38;5.28;;;;;;;22.27;52.25;98850.00;5084230;28;20364;-68
2022/08/01 03:49:54;;;;;;;6.27;5.13;;;;;;;22.24;52.34;98847.66;5084141;28;20267;-68
2022/08/01 03:52:23;;;;;;;6.63;4.78;;;;;;;22.22;52.42;98850.50;5084156;28;20511;-68
2022/08/01 03:54:55;;;;;;;8.20;4.60;;;;;;;22.25;52.27;98849.31;5084051;28;20056;-67
2022/08/01 03:57:25;;;;;;;5.35;3.92;;;;;;;22.08;52.26;98832.31;5084409;28;20082;-68
2022/08/01 03:59:52;;;;;;;5.95;3.90;;;;;;;22.21;51.94;98847.97;5084116;28;20111;-67
2022/08/01 04:02:22;;;;;;;7.03;4.13;;;;;;;22.24;51.98;98844.94;5084219;28;20110;-67
2022/08/01 04:04:50;;;;;;;6.18;4.03;;;;;;;22.23;52.04;98845.97;5086432;28;20060;-67
2022/08/01 04:07:24;;;;;;;5.40;3.40;;;;;;;22.27;51.75;98855.41;5088277;28;20056;-67
2022/08/01 04:09:52;;;;;;;4.38;2.97;;;;;;;22.28;51.80;98854.38;5087883;28;20056;-68
2022/08/01 04:12:19;;;;;;;6.65;4.18;;;;;;;22.07;51.79;98817.13;5087987;28;20052;-67
2022/08/01 04:14:47;;;;;;;4.68;4.00;;;;;;;22.29;51.83;98853.38;5088084;28;20052;-67
2022/08/01 04:17:14;;;;;;;4.78;3.88;;;;;;;22.29;51.80;98858.78;5087812;28;20110;-67
2022/08/01 04:19:43;;;;;;;4.93;3.35;;;;;;;22.28;51.86;98860.63;5087929;28;20060;-67
2022/08/01 04:22:13;;;;;;;4.55;3.80;;;;;;;22.30;51.59;98865.84;5087718;28;20060;-67
2022/08/01 04:24:43;;;;;;;4.15;3.53;;;;;;;22.20;51.79;98857.94;5087913;28;20113;-67
2022/08/01 04:27:14;;;;;;;4.43;3.58;;;;;;;22.31;51.92;98864.84;5087591;28;20110;-67
2022/08/01 04:29:43;;;;;;;4.05;3.00;;;;;;;22.29;51.62;98877.66;5087924;28;20048;-67
2022/08/01 04:32:14;;;;;;;3.58;3.08;;;;;;;22.29;51.69;98878.50;5087773;28;20083;-67
2022/08/01 04:34:47;;;;;;;5.00;2.85;;;;;;;22.30;51.32;98874.78;5087609;28;20056;-68
2022/08/01 04:37:17;;;;;;;4.35;3.17;;;;;;;22.30;51.68;98873.94;5087496;28;20057;-68
2022/08/01 04:39:46;;;;;;;5.28;3.38;;;;;;;22.30;51.60;98874.78;5087283;28;20056;-67
2022/08/01 04:42:16;;;;;;;6.45;3.42;;;;;;;22.32;51.80;98880.03;5087576;28;20250;-67
2022/08/01 04:44:43;;;;;;;4.18;3.03;;;;;;;22.28;51.69;98884.06;5086857;28;20060;-67
2022/08/01 04:47:12;;;;;;;6.82;3.40;;;;;;;22.31;51.47;98878.34;5087462;28;20048;-68
2022/08/01 04:49:40;;;;;;;3.53;2.78;;;;;;;22.31;51.26;98878.34;5087048;28;20114;-67
2022/08/01 04:52:09;;;;;;;4.15;2.65;;;;;;;22.34;51.09;98881.53;5087255;28;20061;-67
2022/08/01 04:54:37;;;;;;;4.93;3.00;;;;;;;22.24;50.94;98866.53;5087379;28;20098;-67
2022/08/01 04:57:05;;;;;;;6.70;3.22;;;;;;;22.36;51.07;98886.75;5086953;28;20048;-67
2022/08/01 04:59:41;;;;;;;5.13;2.60;;;;;;;22.35;50.78;98883.22;5087166;28;20114;-67
2022/08/01 05:02:09;;;;;;;4.28;3.03;;;;;;;22.34;50.95;98883.41;5087296;28;20057;-68
2022/08/01 05:04:37;;;;;;;3.22;2.47;;;;;;;22.36;51.39;98875.97;5087152;28;20060;-67
2022/08/01 05:07:05;;;;;;;5.07;2.83;;;;;;;22.35;50.90;98876.97;5086771;28;20370;-67
2022/08/01 05:09:35;;;;;;;4.20;2.72;;;;;;;22.41;50.64;98874.47;5086660;28;20086;-67
2022/08/01 05:12:04;;;;;;;3.50;2.63;;;;;;;22.20;50.41;98847.16;5087072;28;20097;-67
2022/08/01 05:14:32;;;;;;;3.00;2.42;;;;;;;22.41;51.00;98879.88;5086848;28;20057;-67
2022/08/01 05:16:59;;;;;;;3.10;2.53;;;;;;;22.44;50.70;98867.03;5086100;28;20378;-67
2022/08/01 05:19:27;;;;;;;5.97;3.17;;;;;;;22.32;50.66;98856.56;5086681;28;20052;-67
2022/08/01 05:21:54;;;;;;;4.25;2.97;;;;;;;22.45;51.09;98876.84;5086423;28;20119;-67
2022/08/01 05:24:22;;;;;;;8.45;3.35;;;;;;;22.44;51.02;98870.59;5086410;28;20067;-67
2022/08/01 05:26:50;;;;;;;5.15;2.83;;;;;;;22.44;51.22;98875.16;5086784;28;20060;-67
2022/08/01 05:29:18;;;;;;;4.28;2.85;;;;;;;22.46;51.25;98879.34;5086394;28;20064;-67
2022/08/01 05:31:45;;;;;;;4.10;3.20;;;;;;;22.43;51.06;98882.41;5086545;28;20056;-67
2022/08/01 05:34:12;;;;;;;4.15;2.90;;;;;;;22.45;51.37;98884.94;5086587;28;20298;-67
2022/08/01 05:36:39;;;;;;;5.80;3.38;;;;;;;22.46;51.20;98882.06;5086200;28;20098;-67
2022/08/01 05:39:06;;;;;;;4.38;3.55;;;;;;;22.46;51.19;98887.47;5086443;28;20044;-67
2022/08/01 05:41:34;;;;;;;4.28;2.83;;;;;;;22.49;51.31;98888.97;5086420;28;20110;-67
2022/08/01 05:44:03;;;;;;;5.15;3.22;;;;;;;22.50;51.67;98888.81;5086169;28;20056;-68
2022/08/01 05:46:30;;;;;;;3.65;2.90;;;;;;;22.49;51.55;98884.41;5085976;28;20189;-68
2022/08/01 05:48:58;;;;;;;4.65;3.03;;;;;;;22.08;51.53;98821.53;5086122;28;20351;-68
2022/08/01 05:51:26;;;;;;;3.67;2.92;;;;;;;22.16;51.48;98817.97;5085981;28;20165;-68
2022/08/01 05:53:53;;;;;;;4.82;2.70;;;;;;;22.26;51.00;98837.53;5085870;28;20363;-68
2022/08/01 05:56:21;;;;;;;3.92;2.85;;;;;;;22.46;50.96;98862.31;5086166;28;20110;-67
2022/08/01 05:58:49;;;;;;;4.40;2.53;;;;;;;22.42;50.64;98851.84;5085673;28;20114;-68
2022/08/01 06:01:18;;;;;;;3.60;2.90;;;;;;;22.47;50.37;98856.75;5085513;28;20125;-68
2022/08/01 06:03:46;;;;;;;4.15;2.72;;;;;;;22.60;50.90;98883.25;5085430;28;20064;-68
2022/08/01 06:06:15;;;;;;;4.07;2.83;;;;;;;22.52;50.83;98865.16;5085364;28;20114;-68
2022/08/01 06:08:42;;;;;;;4.13;2.95;;;;;;;22.65;50.65;98878.16;5085830;28;20052;-68
2022/08/01 06:11:09;;;;;;;4.57;3.45;;;;;;;22.49;50.84;98854.72;5085503;28;20052;-68
2022/08/01 06:13:36;;;;;;;4.28;2.85;;;;;;;22.46;50.72;98859.63;5085520;28;20378;-68
2022/08/01 06:16:04;;;;;;;5.47;3.10;;;;;;;22.68;50.86;98900.28;5085582;28;20052;-68
2022/08/01 06:18:32;;;;;;;5.00;3.15;;;;;;;22.60;50.71;98875.97;5085550;28;20056;-68
2022/08/01 06:21:00;;;;;;;5.68;3.40;;;;;;;22.69;51.44;98899.25;5085576;28;20106;-68
2022/08/01 06:23:27;;;;;;;4.30;3.13;;;;;;;22.71;51.56;98896.38;5085576;28;20235;-68
2022/08/01 06:25:55;;;;;;;3.70;2.70;;;;;;;22.25;51.64;98827.72;5085600;28;20056;-68
2022/08/01 06:28:22;;;;;;;3.75;2.72;;;;;;;22.48;51.26;98873.78;5084449;28;20048;-68
2022/08/01 06:30:50;;;;;;;4.50;3.35;;;;;;;22.80;51.22;98898.03;5085492;28;20056;-68
2022/08/01 06:33:17;;;;;;;4.18;3.25;;;;;;;22.81;51.43;98907.00;5085282;28;20056;-68
2022/08/01 06:35:45;;;;;;;4.38;2.90;;;;;;;22.86;51.56;98910.84;5085180;28;20052;-67
2022/08/01 06:38:13;;;;;;;3.60;2.78;;;;;;;22.75;51.46;98888.78;5067947;28;20040;-68
2022/08/01 06:40:40;;;;;;;4.75;2.65;;;;;;;22.91;50.95;98910.34;5085371;28;20301;-68
2022/08/01 06:43:07;;;;;;;4.63;3.20;;;;;;;22.92;50.77;98906.63;5085018;28;20181;-68
2022/08/01 06:45:36;;;;;;;3.78;2.60;;;;;;;22.94;50.83;98913.53;5085531;28;20060;-67
2022/08/01 06:48:04;;;;;;;4.50;3.10;;;;;;;22.96;50.56;98910.66;5085617;28;20055;-67
2022/08/01 06:50:32;;;;;;;3.20;2.70;;;;;;;23.00;50.11;98903.88;5084873;28;20098;-68
2022/08/01 06:53:01;;;;;;;5.28;3.50;;;;;;;23.05;50.61;98905.06;5085627;28;20052;-67
2022/08/01 06:55:28;;;;;;;3.10;2.55;;;;;;;23.08;50.54;98903.84;5085804;28;20052;-67
2022/08/01 06:57:55;;;;;;;4.00;2.95;;;;;;;23.12;50.08;98905.19;5085179;28;20098;-67
2022/08/01 07:00:25;;;;;;;3.97;2.70;;;;;;;23.21;49.86;98895.19;5085563;28;20243;-68
2022/08/01 07:02:53;;;;;;;3.92;2.83;;;;;;;23.25;49.41;98896.50;5085498;28;20091;-68
2022/08/01 07:05:20;;;;;;;4.70;2.40;;;;;;;23.38;49.77;98893.28;5084919;28;20098;-68
2022/08/01 07:07:48;;;;;;;3.97;2.65;;;;;;;23.48;49.65;98899.31;5085362;28;20320;-68
2022/08/01 07:10:16;;;;;;;3.15;2.38;;;;;;;23.55;49.68;98900.28;5085382;28;20040;-68
2022/08/01 07:12:44;;;;;;;4.68;3.10;;;;;;;23.35;49.57;98864.72;5085037;28;20056;-67
2022/08/01 07:15:12;;;;;;;4.15;2.85;;;;;;;23.63;48.08;98900.22;5067607;28;20041;-68
2022/08/01 07:17:40;;;;;;;3.72;2.50;;;;;;;23.69;47.93;98902.22;5084672;28;20056;-68
2022/08/01 07:20:09;;;;;;;3.72;2.38;;;;;;;23.75;47.97;98903.34;5084942;28;20061;-68
2022/08/01 07:22:36;;;;;;;3.78;2.60;;;;;;;23.79;47.13;98894.69;5084756;28;20445;-68
2022/08/01 07:25:05;;;;;;;3.58;2.63;;;;;;;23.82;47.68;98896.19;5085015;28;20266;-68
2022/08/01 07:27:34;;;;;;;5.07;2.65;;;;;;;23.86;47.22;98902.94;5084670;28;20078;-68
2022/08/01 07:30:01;;;;;;;3.10;2.40;;;;;;;23.85;46.90;98907.50;5084676;28;20064;-68
2022/08/01 07:32:29;;;;;;;4.07;3.33;;;;;;;23.86;46.66;98909.19;5085015;28;20040;-68
2022/08/01 07:34:57;;;;;;;4.75;2.70;;;;;;;23.86;46.56;98903.78;5085029;28;20118;-67
2022/08/01 07:37:24;;;;;;;3.17;2.47;;;;;;;23.87;46.96;98910.88;5084512;28;20370;-68
2022/08/01 07:39:51;;;;;;;3.28;2.42;;;;;;;23.87;46.48;98910.88;5069090;28;20064;-68
2022/08/01 07:42:19;;;;;;;3.80;2.60;;;;;;;23.84;46.41;98916.66;5089010;28;20117;-67
2022/08/01 07:44:48;;;;;;;3.72;2.20;;;;;;;23.85;46.62;98918.34;5088536;28;20056;-68
2022/08/01 07:47:15;;;;;;;3.80;2.83;;;;;;;23.86;47.59;98917.31;5088667;28;20060;-68
2022/08/01 07:49:42;;;;;;;4.07;3.00;;;;;;;23.86;47.68;98921.88;5088217;28;20056;-68
2022/08/01 07:52:10;;;;;;;4.10;2.90;;;;;;;23.86;47.87;98914.59;5071027;28;20122;-68
2022/08/01 07:54:37;;;;;;;3.90;2.58;;;;;;;23.83;47.69;98920.38;5088503;28;20056;-68
2022/08/01 07:57:05;;;;;;;3.50;2.72;;;;;;;23.84;48.24;98918.50;5088453;28;20102;-68
2022/08/01 07:59:32;;;;;;;3.80;2.60;;;;;;;23.82;48.16;98928.69;5088221;28;20189;-68
2022/08/01 08:02:01;;;;;;;3.10;2.40;;;;;;;23.80;47.97;98925.31;5088055;28;20060;-68
2022/08/01 08:04:28;;;;;;;4.57;2.65;;;;;;;23.80;48.06;98926.16;5087932;28;20087;-68
2022/08/01 08:06:55;;;;;;;5.10;3.08;;;;;;;23.79;48.22;98927.16;5088126;28;20087;-68
2022/08/01 08:09:23;;;;;;;3.45;2.53;;;;;;;23.77;48.18;98926.50;5088441;28;20090;-68
2022/08/01 08:11:50;;;;;;;3.75;2.70;;;;;;;23.77;48.62;98931.06;5087917;28;20161;-68
2022/08/01 08:14:18;;;;;;;6.53;2.33;;;;;;;23.79;48.73;98931.75;5087786;28;20056;-68
2022/08/01 08:16:46;;;;;;;4.75;3.15;;;;;;;23.78;48.33;98932.75;5088157;28;20065;-68
2022/08/01 08:19:14;;;;;;;3.22;2.50;;;;;;;23.80;48.56;98926.16;5088072;28;20060;-68
2022/08/01 08:21:42;;;;;;;3.03;2.53;;;;;;;23.74;48.04;98931.44;5088153;28;20113;-68
2022/08/01 08:24:23;;;;;;;5.45;2.70;;;;;;;23.50;47.46;98913.50;5087600;28;20267;-68
2022/08/01 08:26:53;;;;;;;3.03;2.42;;;;;;;23.78;48.01;98944.44;5087988;28;20052;-68
2022/08/01 08:29:22;;;;;;;4.43;3.17;;;;;;;23.80;47.82;98934.25;5088106;28;20111;-68
2022/08/01 08:31:50;;;;;;;3.85;2.20;;;;;;;23.90;48.25;98932.16;5087495;28;20117;-68
2022/08/01 08:34:19;;;;;;;4.78;2.70;;;;;;;23.86;48.24;98911.91;5087782;28;20186;-68
2022/08/01 08:36:46;;;;;;;2.92;2.20;;;;;;;24.05;47.70;98934.13;5087670;28;20243;-68
2022/08/01 08:39:13;;;;;;;3.83;2.92;;;;;;;24.16;47.80;98933.69;5087520;28;20109;-68
2022/08/01 08:41:41;;;;;;;3.15;2.45;;;;;;;23.78;47.47;98857.84;5087788;28;20045;-68
2022/08/01 08:44:09;;;;;;;4.65;2.90;;;;;;;24.10;46.79;98893.81;5087636;28;20304;-68
2022/08/01 08:46:42;;;;;;;4.35;2.30;;;;;;;24.49;46.86;98931.56;5087120;28;20083;-68
2022/08/01 08:49:10;;;;;;;5.95;2.90;;;;;;;24.57;46.44;98929.59;5087287;28;20056;-68
2022/08/01 08:51:42;;;;;;;4.45;2.75;;;;;;;24.63;45.53;98930.72;5086327;28;20366;-68
2022/08/01 08:54:12;;;;;;;4.82;3.15;;;;;;;24.80;45.86;98936.88;5087593;28;20056;-68
2022/08/01 08:56:40;;;;;;;6.22;2.70;;;;;;;24.86;45.51;98936.13;5087288;28;20090;-68
2022/08/01 08:59:07;;;;;;;3.80;2.45;;;;;;;25.04;45.47;98924.94;5087072;28;20366;-68
2022/08/01 09:01:35;;;;;;;3.58;2.50;;;;;;;25.22;45.32;98931.66;5087611;28;20056;-68
2022/08/01 09:04:03;;;;;;;3.47;2.53;;;;;;;25.04;44.76;98886.97;5087577;28;20125;-68
2022/08/01 09:06:30;;;;;;;4.13;2.67;;;;;;;25.33;45.14;98918.69;5087408;28;20304;-69
2022/08/01 09:09:00;;;;;;;3.53;2.72;;;;;;;25.58;44.97;98928.16;5087182;28;20094;-68
2022/08/01 09:11:27;;;;;;;3.75;2.50;;;;;;;25.68;44.91;98917.84;5087040;28;20102;-69
2022/08/01 09:14:06;;;;;;;4.72;3.13;;;;;;;25.52;44.43;98883.66;5087226;28;20258;-68
2022/08/01 09:16:35;;;;;;;5.53;2.88;;;;;;;25.92;44.54;98906.63;5087127;28;20052;-68
2022/08/01 09:19:13;;;;;;;3.53;3.08;;;;;;;26.33;43.66;98924.16;5086798;28;20287;-68
2022/08/01 09:21:55;;;;;;;3.13;2.50;;;;;;;25.95;43.76;98845.66;5086408;28;20067;-68
2022/08/01 09:24:26;;;;;;;4.10;2.88;;;;;;;26.49;42.45;98935.59;5086513;28;20048;-68
2022/08/01 09:26:54;;;;;;;3.05;2.42;;;;;;;26.52;43.12;98935.19;5086443;28;20309;-68
2022/08/01 09:29:26;;;;;;;4.05;2.80;;;;;;;26.61;43.27;98930.47;5086733;28;20048;-68
2022/08/01 09:31:53;;;;;;;3.45;2.88;;;;;;;26.79;42.46;98949.00;5086342;28;20244;-68
2022/08/01 09:34:26;;;;;;;3.30;2.75;;;;;;;26.85;42.32;98950.94;5086848;28;20060;-69
2022/08/01 09:36:55;;;;;;;3.22;2.78;;;;;;;26.87;42.27;98940.69;5086564;28;20052;-69
2022/08/01 09:39:27;;;;;;;3.47;2.70;;;;;;;26.90;42.34;98939.47;5086621;28;20098;-69
2022/08/01 09:41:56;;;;;;;4.65;3.05;;;;;;;26.71;42.92;98886.66;5086458;28;20259;-68
2022/08/01 09:44:39;;;;;;;3.95;2.85;;;;;;;27.22;42.76;98925.22;5086102;28;20133;-68
2022/08/01 09:47:06;;;;;;;7.38;2.70;;;;;;;27.41;42.58;98934.53;5086409;28;20312;-68
2022/08/01 09:49:37;;;;;;;3.20;2.42;;;;;;;27.44;42.33;98936.84;5085893;28;20060;-69
2022/08/01 09:52:13;;;;;;;4.53;2.65;;;;;;;27.49;42.52;98923.47;5086881;28;20094;-68
2022/08/01 09:54:43;;;;;;;3.53;2.72;;;;;;;27.32;42.29;98912.13;5086251;28;20098;-68
2022/08/01 09:57:14;;;;;;;4.28;3.20;;;;;;;27.40;42.48;98928.25;5086219;28;20101;-68
2022/08/01 09:59:43;;;;;;;3.70;2.78;;;;;;;27.37;42.54;98941.44;5086192;28;20044;-68
2022/08/01 10:02:13;;;;;;;4.18;3.50;;;;;;;27.27;42.09;98936.38;5085438;28;20083;-68
2022/08/01 10:04:50;;;;;;;3.50;2.85;;;;;;;27.22;40.79;98938.81;5086333;28;20057;-69
2022/08/01 10:07:19;;;;;;;3.83;2.72;;;;;;;27.08;42.05;98940.63;5085843;28;20057;-68
2022/08/01 10:09:47;;;;;;;3.63;3.00;;;;;;;26.97;42.07;98935.75;5086117;28;20173;-69
2022/08/01 10:12:18;;;;;;;3.58;2.95;;;;;;;26.83;42.55;98904.91;5086112;28;20064;-69
2022/08/01 10:14:48;;;;;;;6.28;3.55;;;;;;;27.10;43.08;98930.38;5085828;28;20109;-68
2022/08/01 10:17:17;;;;;;;4.22;3.30;;;;;;;27.05;42.47;98908.38;5085894;28;20098;-68
2022/08/01 10:19:45;;;;;;;5.57;4.10;;;;;;;26.67;42.38;98828.28;5085763;28;20082;-68
2022/08/01 10:22:16;;;;;;;4.75;3.90;;;;;;;27.21;42.24;98936.28;5085455;28;20056;-68
2022/08/01 10:24:45;;;;;;;4.20;2.85;;;;;;;27.15;42.58;98938.78;5086032;28;20109;-68
2022/08/01 10:27:16;;;;;;;3.65;2.92;;;;;;;27.15;42.23;98930.63;5085366;28;20060;-69
2022/08/01 10:29:48;;;;;;;3.75;3.33;;;;;;;27.13;42.60;98921.81;5085153;28;20052;-69
2022/08/01 10:32:16;;;;;;;9.77;3.38;;;;;;;26.74;42.93;98846.31;5085396;28;20098;-68
2022/08/01 10:34:44;;;;;;;3.72;3.20;;;;;;;27.27;42.98;98921.91;5085915;28;20086;-68
2022/08/01 10:37:14;;;;;;;4.15;3.45;;;;;;;27.29;42.04;98917.97;5085096;28;20140;-68
2022/08/01 10:39:41;;;;;;;4.40;3.63;;;;;;;27.40;42.18;98908.38;5085569;28;20049;-68
2022/08/01 10:42:12;;;;;;;3.90;3.15;;;;;;;27.52;42.17;98903.19;5085136;28;20110;-68
2022/08/01 10:44:41;;;;;;;4.43;2.97;;;;;;;27.57;42.14;98912.41;5085090;28;20052;-68
2022/08/01 10:47:11;;;;;;;3.10;2.65;;;;;;;27.59;41.73;98896.72;5085433;28;20064;-68
2022/08/01 10:49:44;;;;;;;3.78;2.88;;;;;;;27.64;41.29;98902.41;5085013;28;20056;-68
2022/08/01 10:52:15;;;;;;;3.70;3.30;;;;;;;27.64;40.48;98877.91;5085252;28;20357;-69
2022/08/01 10:54:44;;;;;;;3.42;2.83;;;;;;;27.64;40.72;98879.81;5085027;28;20052;-68
2022/08/01 10:57:12;;;;;;;3.70;2.78;;;;;;;27.62;40.59;98865.56;5085248;28;20320;-68
2022/08/01 10:59:51;;;;;;;3.80;2.75;;;;;;;27.93;40.77;98878.63;5085218;28;20060;-69
2022/08/01 11:02:29;;;;;;;4.40;3.83;;;;;;;28.11;39.85;98885.16;5085055;28;20064;-68
2022/08/01 11:04:59;;;;;;;6.03;3.45;;;;;;;28.23;40.00;98889.97;5085254;28;20227;-68
2022/08/01 11:07:43;;;;;;;6.25;3.53;;;;;;;28.35;38.44;98880.13;5084958;28;20050;-69
2022/08/01 11:10:22;;;;;;;4.22;3.38;;;;;;;28.29;38.58;98889.13;5085478;28;20044;-69
2022/08/01 11:12:50;;;;;;;5.25;3.65;;;;;;;28.26;39.76;98886.84;5085169;28;20064;-68
2022/08/01 11:15:27;;;;;;;5.25;3.72;;;;;;;28.18;38.76;98838.84;5084662;28;20061;-68
2022/08/01 11:17:55;;;;;;;4.38;3.78;;;;;;;28.16;38.88;98827.31;5067756;28;20040;-69
2022/08/01 11:20:24;;;;;;;4.20;3.00;;;;;;;28.38;37.67;98876.97;5084857;28;20346;-68
2022/08/01 11:23:28;;;;;;;4.82;2.95;;;;;;;28.44;36.61;98874.28;5085048;28;20223;-69
2022/08/01 11:26:13;;;;;;;3.72;2.95;;;;;;;28.35;37.54;98867.34;5085001;28;20071;-68
2022/08/01 11:28:43;;;;;;;3.55;2.75;;;;;;;28.32;37.96;98862.31;5084820;28;20049;-69
2022/08/01 11:31:35;;;;;;;5.85;3.20;;;;;;;28.24;36.73;98870.69;5084912;28;20255;-68
2022/08/01 11:34:03;;;;;;;3.88;2.95;;;;;;;28.22;37.89;98863.78;5084831;28;20118;-68
2022/08/01 11:36:30;;;;;;;4.45;3.05;;;;;;;28.21;38.04;98873.00;5084907;28;20056;-68
2022/08/01 11:39:17;;;;;;;3.40;2.67;;;;;;;27.91;37.02;98818.94;5084988;28;20366;-68
2022/08/01 11:41:46;;;;;;;6.38;3.42;;;;;;;27.75;37.91;98803.81;5084700;28;20114;-68
2022/08/01 11:44:16;;;;;;;3.72;2.85;;;;;;;28.11;38.42;98844.28;5085270;28;20037;-69
2022/08/01 11:46:52;;;;;;;5.53;2.95;;;;;;;28.11;38.25;98840.72;5084281;28;20082;-68